Time;durP1;ratioP1;P1;durP2;ratioP2;P2;SDS_P1;SDS_P2;PMS_P1;PMS_P2;Temp;Humidity;BMP_temperature;BMP_pressure;BME280_temperature;BME280_humidity;BME280_pressure;Samples;Min_cycle;Max_cycle;Signal;HPM_P1;HPM_P2
2024/02/09 00:01:57;;;;;;;;;;;;;;;3.88;100.00;96229.54;110488;1240;72272;-62
2024/02/09 00:04:25;;;;;;;;;;;;;;;3.88;100.00;96228.82;110501;1241;69636;-62
2024/02/09 00:06:54;;;;;;;;;;;;;;;3.88;100.00;96224.52;110412;1241;69227;-62
2024/02/09 00:09:24;;;;;;;;;;;;;;;3.86;100.00;96226.19;110371;1240;59703;-62
2024/02/09 00:11:53;;;;;;;;;;;;;;;3.82;100.00;96228.00;110465;1241;59637;-62
2024/02/09 00:14:22;;;;;;;;;;;;;;;3.76;100.00;96223.58;110497;1241;71975;-63
2024/02/09 00:16:51;;;;;;;;;;;;;;;3.71;100.00;96228.54;110467;1241;69981;-63
2024/02/09 00:19:20;;;;;;;;;;;;;;;3.68;100.00;96228.92;110456;1241;69572;-63
2024/02/09 00:21:49;;;;;;;;;;;;;;;3.66;100.00;96227.33;110404;1241;59740;-62
2024/02/09 00:24:18;;;;;;;;;;;;;;;3.64;100.00;96232.46;110387;1241;59668;-62
2024/02/09 00:26:47;;;;;;;;;;;;;;;3.59;100.00;96237.58;110521;1241;71332;-62
2024/02/09 00:29:17;;;;;;;;;;;;;;;3.52;100.00;96240.75;110450;1242;69698;-62
2024/02/09 00:31:46;;;;;;;;;;;;;;;3.47;100.00;96238.86;110455;1241;69201;-61
2024/02/09 00:34:17;;;;;;;;;;;;;;;3.41;100.00;96242.70;110462;1240;59679;-61
2024/02/09 00:36:55;;;;;;;;;;;;;;;3.34;100.00;96237.96;110455;1242;59663;-61
2024/02/09 00:39:24;;;;;;;;;;;;;;;3.26;100.00;96226.92;110523;1241;71299;-62
2024/02/09 00:41:53;;;;;;;;;;;;;;;3.20;100.00;96223.19;110512;1241;69238;-61
2024/02/09 00:44:22;;;;;;;;;;;;;;;3.15;100.00;96219.05;110417;1242;69678;-63
2024/02/09 00:46:51;;;;;;;;;;;;;;;3.10;100.00;96214.83;110404;1239;59740;-62
2024/02/09 00:49:20;;;;;;;;;;;;;;;3.07;100.00;96212.08;110442;1241;59660;-62
2024/02/09 00:51:52;;;;;;;;;;;;;;;3.05;100.00;96203.10;110545;1241;70963;-61
2024/02/09 00:54:23;;;;;;;;;;;;;;;3.05;100.00;96202.73;110552;1242;70212;-62
2024/02/09 00:56:53;;;;;;;;;;;;;;;3.03;100.00;96202.89;110527;1242;69113;-61
2024/02/09 00:59:23;;;;;;;;;;;;;;;3.00;100.00;96201.88;110416;1242;59769;-62
2024/02/09 01:01:55;;;;;;;;;;;;;;;2.96;100.00;96201.75;110496;1241;59674;-62
2024/02/09 01:04:34;;;;;;;;;;;;;;;2.93;100.00;96200.77;110271;1241;71882;-62
2024/02/09 01:07:04;;;;;;;;;;;;;;;2.89;100.00;96196.19;110363;1241;69816;-62
2024/02/09 01:09:33;;;;;;;;;;;;;;;2.85;100.00;96193.83;110464;1241;69074;-62
2024/02/09 02:46:15;;;;;;;;;;;;;;;2.30;100.00;96142.30;110470;1242;69373;-62
2024/02/09 03:05:29;;;;;;;;;;;;;;;2.50;100.00;96141.92;110254;1241;59733;-62
2024/02/09 03:07:59;;;;;;;;;;;;;;;2.52;100.00;96142.64;110472;1240;71161;-62
2024/02/09 03:10:30;;;;;;;;;;;;;;;2.52;100.00;96149.52;110470;1241;69753;-62
2024/02/09 03:12:59;;;;;;;;;;;;;;;2.52;100.00;96147.69;110359;1242;69245;-62
2024/02/09 03:15:28;;;;;;;;;;;;;;;2.52;100.00;96148.70;110440;1241;59722;-61
2024/02/09 03:17:57;;;;;;;;;;;;;;;2.54;100.00;96148.95;110469;1242;59678;-62
2024/02/09 03:20:26;;;;;;;;;;;;;;;2.54;100.00;96149.27;110449;1240;71318;-62
2024/02/09 03:22:55;;;;;;;;;;;;;;;2.54;100.00;96145.98;110431;1239;69402;-62
2024/02/09 03:25:24;;;;;;;;;;;;;;;2.55;100.00;96144.04;110361;1241;69085;-62
2024/02/09 03:27:53;;;;;;;;;;;;;;;2.55;100.00;96142.14;110342;1239;59706;-62
2024/02/09 03:30:22;;;;;;;;;;;;;;;2.57;100.00;96139.64;110437;1242;59588;-62
2024/02/09 03:32:51;;;;;;;;;;;;;;;2.58;100.00;96139.08;110346;1242;71746;-62
2024/02/09 03:35:22;;;;;;;;;;;;;;;2.56;100.00;96137.81;110396;1241;70213;-62
2024/02/09 03:37:52;;;;;;;;;;;;;;;2.54;100.00;96137.77;110347;1242;69944;-62
2024/02/09 03:40:21;;;;;;;;;;;;;;;2.51;100.00;96138.62;110375;1242;59678;-62
2024/02/09 03:42:51;;;;;;;;;;;;;;;2.49;100.00;96139.59;110399;1238;59685;-62
2024/02/09 03:45:20;;;;;;;;;;;;;;;2.44;100.00;96144.52;110378;1241;71328;-62
2024/02/09 03:47:50;;;;;;;;;;;;;;;2.39;100.00;96146.23;110423;1242;68337;-62
2024/02/09 03:50:19;;;;;;;;;;;;;;;2.32;100.00;96149.38;110366;1242;69874;-62
2024/02/09 03:52:48;;;;;;;;;;;;;;;2.26;100.00;96147.38;110368;1238;59765;-62
2024/02/09 03:55:17;;;;;;;;;;;;;;;2.19;100.00;96146.58;110390;1238;59627;-62
2024/02/09 03:57:46;;;;;;;;;;;;;;;2.12;100.00;96144.39;110293;1241;71907;-62
2024/02/09 04:00:15;;;;;;;;;;;;;;;2.04;100.00;96140.73;110338;1243;69872;-62
2024/02/09 04:02:45;;;;;;;;;;;;;;;1.99;100.00;96142.24;110344;1241;69179;-62
2024/02/09 04:05:16;;;;;;;;;;;;;;;1.95;100.00;96138.38;110367;1242;59736;-62
2024/02/09 04:07:46;;;;;;;;;;;;;;;1.92;100.00;96136.16;110342;1241;59696;-62
2024/02/09 04:10:14;;;;;;;;;;;;;;;1.92;100.00;96140.27;110522;1243;70381;-62
2024/02/09 04:13:06;;;;;;;;;;;;;;;1.92;100.00;96140.41;110425;1241;69323;-62
2024/02/09 04:15:34;;;;;;;;;;;;;;;1.93;100.00;96140.50;110369;1242;69312;-62
2024/02/09 04:18:06;;;;;;;;;;;;;;;1.95;100.00;96140.75;110410;1241;59745;-62
2024/02/09 04:20:35;;;;;;;;;;;;;;;1.98;100.00;96145.20;110428;1242;59671;-62
2024/02/09 04:23:04;;;;;;;;;;;;;;;1.99;100.00;96147.02;110369;1238;70250;-62
2024/02/09 04:25:32;;;;;;;;;;;;;;;1.99;100.00;96146.52;110422;1241;69801;-62
2024/02/09 04:28:03;;;;;;;;;;;;;;;1.98;100.00;96153.45;110413;1238;68822;-62
2024/02/09 04:30:32;;;;;;;;;;;;;;;2.00;100.00;96148.91;110401;1249;59675;-62
2024/02/09 04:33:01;;;;;;;;;;;;;;;2.03;100.00;96155.41;110391;1241;59740;-62
2024/02/09 04:35:31;;;;;;;;;;;;;;;2.06;100.00;96148.58;110335;1241;72431;-62
2024/02/09 04:38:06;;;;;;;;;;;;;;;2.06;100.00;96144.91;110251;1242;69061;-62
2024/02/09 04:40:35;;;;;;;;;;;;;;;2.04;100.00;96147.44;110516;1241;69129;-61
2024/02/09 04:43:05;;;;;;;;;;;;;;;2.01;100.00;96144.85;110360;1242;59739;-62
2024/02/09 04:45:34;;;;;;;;;;;;;;;1.97;100.00;96143.71;110362;1243;59742;-62
2024/02/09 04:48:03;;;;;;;;;;;;;;;1.93;100.00;96145.00;110420;1241;71238;-62
2024/02/09 04:50:32;;;;;;;;;;;;;;;1.88;100.00;96149.05;110427;1241;69228;-62
2024/02/09 04:53:00;;;;;;;;;;;;;;;1.85;100.00;96146.00;110418;1242;69247;-62
2024/02/09 04:55:29;;;;;;;;;;;;;;;1.81;100.00;96145.88;110374;1240;60078;-62
2024/02/09 04:57:58;;;;;;;;;;;;;;;1.77;100.00;96144.73;110369;1241;59637;-62
2024/02/09 05:00:27;;;;;;;;;;;;;;;1.73;100.00;96142.56;110403;1239;71404;-62
2024/02/09 05:02:56;;;;;;;;;;;;;;;1.72;100.00;96144.02;110606;1241;68426;-62
2024/02/09 05:05:25;;;;;;;;;;;;;;;1.70;100.00;96142.08;110391;1242;69851;-62
2024/02/09 05:07:53;;;;;;;;;;;;;;;1.69;100.00;96143.15;110412;1242;59735;-62
2024/02/09 05:10:22;;;;;;;;;;;;;;;1.67;100.00;96137.56;110426;1239;59663;-62
2024/02/09 05:12:52;;;;;;;;;;;;;;;1.68;100.00;96130.17;110466;1240;71988;-62
2024/02/09 05:15:20;;;;;;;;;;;;;;;1.70;100.00;96132.61;110364;1242;69095;-62
2024/02/09 05:17:49;;;;;;;;;;;;;;;1.70;100.00;96129.48;110346;1241;69189;-62
2024/02/09 05:20:18;;;;;;;;;;;;;;;1.71;100.00;96132.22;110198;1248;60163;-62
2024/02/09 05:22:47;;;;;;;;;;;;;;;1.73;100.00;96134.98;110359;1241;59682;-62
2024/02/09 05:25:16;;;;;;;;;;;;;;;1.75;100.00;96130.93;110413;1242;71438;-62
2024/02/09 05:27:45;;;;;;;;;;;;;;;1.75;100.00;96132.98;110412;1238;70435;-62
2024/02/09 05:30:15;;;;;;;;;;;;;;;1.74;100.00;96134.45;110393;1238;69066;-62
2024/02/09 05:32:43;;;;;;;;;;;;;;;1.73;100.00;96137.60;110381;1241;59671;-62
2024/02/09 05:35:12;;;;;;;;;;;;;;;1.70;100.00;96135.87;110419;1242;59682;-62
2024/02/09 05:37:41;;;;;;;;;;;;;;;1.66;100.00;96131.83;110433;1242;71244;-61
2024/02/09 05:40:10;;;;;;;;;;;;;;;1.62;100.00;96139.79;110382;1242;69676;-62
2024/02/09 05:42:39;;;;;;;;;;;;;;;1.59;100.00;96140.48;110516;1238;69216;-62
2024/02/09 05:45:09;;;;;;;;;;;;;;;1.56;100.00;96142.72;110368;1241;59750;-62
2024/02/09 05:47:38;;;;;;;;;;;;;;;1.54;100.00;96143.64;110457;1242;59614;-62
2024/02/09 05:50:07;;;;;;;;;;;;;;;1.53;100.00;96146.80;110427;1242;71140;-62
2024/02/09 05:52:35;;;;;;;;;;;;;;;1.53;100.00;96145.56;110402;1238;69941;-62
2024/02/09 05:55:05;;;;;;;;;;;;;;;1.56;100.00;96147.48;110401;1241;69278;-62
2024/02/09 05:57:36;;;;;;;;;;;;;;;1.58;100.00;96151.33;110387;1244;59721;-63
2024/02/09 06:00:07;;;;;;;;;;;;;;;1.63;100.00;96148.78;110443;1241;59689;-62
2024/02/09 06:02:37;;;;;;;;;;;;;;;1.73;100.00;96152.01;110528;1242;71896;-62
2024/02/09 06:05:06;;;;;;;;;;;;;;;1.80;100.00;96148.15;110410;1242;69032;-62
2024/02/09 06:07:37;;;;;;;;;;;;;;;1.90;100.00;96156.15;110418;1242;69763;-62
2024/02/09 06:10:06;;;;;;;;;;;;;;;2.00;100.00;96166.08;110561;1242;59744;-62
2024/02/09 06:12:35;;;;;;;;;;;;;;;2.08;100.00;96170.63;110422;1242;59702;-62
2024/02/09 06:15:08;;;;;;;;;;;;;;;2.16;100.00;96174.27;110410;1238;71119;-62
2024/02/09 06:17:38;;;;;;;;;;;;;;;2.27;100.00;96178.23;110073;1242;507930;-62
2024/02/09 06:20:10;;;;;;;;;;;;;;;2.39;100.00;96184.40;110517;1238;69695;-62
2024/02/09 06:22:39;;;;;;;;;;;;;;;2.51;100.00;96186.58;110476;1242;59648;-63
2024/02/09 06:25:08;;;;;;;;;;;;;;;2.67;100.00;96187.70;110365;1242;59635;-62
2024/02/09 06:27:36;;;;;;;;;;;;;;;2.84;100.00;96184.63;110369;1242;70721;-62
2024/02/09 06:30:05;;;;;;;;;;;;;;;3.01;100.00;96193.87;110415;1241;69900;-62
2024/02/09 06:32:34;;;;;;;;;;;;;;;3.18;100.00;96194.04;110418;1241;69089;-62
2024/02/09 06:35:04;;;;;;;;;;;;;;;3.33;100.00;96199.13;110364;1242;59670;-62
2024/02/09 06:37:34;;;;;;;;;;;;;;;3.49;100.00;96204.29;110353;1242;59675;-62
2024/02/09 06:40:03;;;;;;;;;;;;;;;3.65;100.00;96209.62;110333;1241;71772;-62
2024/02/09 06:42:32;;;;;;;;;;;;;;;3.81;100.00;96212.73;110413;1241;69569;-63
2024/02/09 06:45:01;;;;;;;;;;;;;;;4.01;100.00;96218.14;110543;1240;68529;-62
2024/02/09 06:47:29;;;;;;;;;;;;;;;4.25;100.00;96219.17;110412;1241;59714;-62
2024/02/09 06:49:58;;;;;;;;;;;;;;;4.49;100.00;96226.20;110479;1241;59734;-62
2024/02/09 06:52:31;;;;;;;;;;;;;;;4.71;100.00;96230.05;110432;1239;70619;-62
2024/02/09 06:55:00;;;;;;;;;;;;;;;4.90;100.00;96229.59;110426;1241;69174;-62
2024/02/09 06:57:29;;;;;;;;;;;;;;;5.04;100.00;96226.23;110447;1241;69880;-62
2024/02/09 06:59:58;;;;;;;;;;;;;;;5.12;100.00;96226.89;110442;1240;59689;-62
2024/02/09 07:02:27;;;;;;;;;;;;;;;5.16;100.00;96232.65;110439;1242;59801;-62
2024/02/09 07:05:00;;;;;;;;;;;;;;;5.21;100.00;96232.99;110472;1240;71367;-62
2024/02/09 07:07:32;;;;;;;;;;;;;;;5.27;100.00;96237.54;110416;1242;69134;-62
2024/02/09 07:10:02;;;;;;;;;;;;;;;5.33;100.00;96241.11;110423;1240;69866;-63
2024/02/09 07:12:30;;;;;;;;;;;;;;;5.36;100.00;96245.06;110443;1244;59689;-62
2024/02/09 07:15:00;;;;;;;;;;;;;;;5.38;100.00;96247.36;110470;1241;59681;-62
2024/02/09 07:17:28;;;;;;;;;;;;;;;5.47;100.00;96246.20;110491;1241;71346;-62
2024/02/09 07:19:57;;;;;;;;;;;;;;;5.52;100.00;96253.78;110426;1240;69181;-61
2024/02/09 07:22:26;;;;;;;;;;;;;;;5.59;100.00;96253.61;110405;1240;68279;-62
2024/02/09 07:24:55;;;;;;;;;;;;;;;5.69;100.00;96255.56;110474;1241;59728;-62
2024/02/09 07:27:23;;;;;;;;;;;;;;;5.76;100.00;96254.31;110471;1242;59759;-62
2024/02/09 07:29:52;;;;;;;;;;;;;;;5.84;100.00;96251.48;110416;1242;71495;-62
2024/02/09 07:32:21;;;;;;;;;;;;;;;5.92;100.00;96254.73;110426;1240;69192;-62
2024/02/09 07:34:52;;;;;;;;;;;;;;;6.03;100.00;96257.55;110416;1242;69878;-62
2024/02/09 07:37:21;;;;;;;;;;;;;;;6.23;100.00;96260.59;110419;1242;60108;-62
2024/02/09 07:39:50;;;;;;;;;;;;;;;6.38;100.00;96262.77;110507;1242;59679;-62
2024/02/09 07:42:20;;;;;;;;;;;;;;;6.51;100.00;96271.16;110522;1242;71086;-62
2024/02/09 07:44:48;;;;;;;;;;;;;;;6.69;100.00;96276.77;110586;1238;69216;-62
2024/02/09 07:47:18;;;;;;;;;;;;;;;6.84;100.00;96276.67;110522;1243;69294;-62
2024/02/09 07:49:47;;;;;;;;;;;;;;;6.95;100.00;96276.17;110558;1244;59720;-62
2024/02/09 07:52:16;;;;;;;;;;;;;;;7.03;100.00;96273.13;110516;1242;59671;-62
2024/02/09 07:54:45;;;;;;;;;;;;;;;7.08;100.00;96273.80;110488;1238;71951;-63
2024/02/09 07:57:15;;;;;;;;;;;;;;;7.15;100.00;96275.51;110463;1238;68369;-62
2024/02/09 07:59:44;;;;;;;;;;;;;;;7.21;100.00;96278.00;110578;1242;69154;-62
2024/02/09 08:02:12;;;;;;;;;;;;;;;7.25;100.00;96277.51;110554;1238;59694;-62
2024/02/09 08:04:41;;;;;;;;;;;;;;;7.31;100.00;96269.42;110428;1238;59724;-62
2024/02/09 08:07:10;;;;;;;;;;;;;;;7.38;100.00;96271.66;110462;1243;70620;-62
2024/02/09 08:09:39;;;;;;;;;;;;;;;7.42;100.00;96267.36;110416;1242;69502;-62
2024/02/09 08:12:08;;;;;;;;;;;;;;;7.41;100.00;96268.31;110376;1242;69569;-62
2024/02/09 08:14:41;;;;;;;;;;;;;;;7.38;100.00;96269.86;110376;1241;59742;-60
2024/02/09 08:17:10;;;;;;;;;;;;;;;7.38;100.00;96267.25;110361;1242;59608;-61
2024/02/09 08:19:38;;;;;;;;;;;;;;;7.40;100.00;96264.89;110410;1239;71339;-63
2024/02/09 08:22:07;;;;;;;;;;;;;;;7.44;100.00;96264.95;110424;1242;69722;-62
2024/02/09 08:24:38;;;;;;;;;;;;;;;7.51;100.00;96267.33;110411;1241;69739;-61
2024/02/09 08:27:07;;;;;;;;;;;;;;;7.61;100.00;96271.33;110368;1241;59662;-62
2024/02/09 08:29:36;;;;;;;;;;;;;;;7.74;100.00;96266.58;110371;1243;59645;-62
2024/02/09 08:32:09;;;;;;;;;;;;;;;7.88;100.00;96259.71;110353;1242;70392;-62
2024/02/09 08:34:38;;;;;;;;;;;;;;;8.04;100.00;96256.14;110399;1242;69391;-62
2024/02/09 08:37:09;;;;;;;;;;;;;;;8.23;100.00;96250.30;110445;1240;69104;-62
2024/02/09 08:39:40;;;;;;;;;;;;;;;8.45;100.00;96246.75;110464;1240;59695;-62
2024/02/09 08:42:08;;;;;;;;;;;;;;;8.71;100.00;96249.62;110518;1240;59666;-62
2024/02/09 08:44:37;;;;;;;;;;;;;;;9.00;100.00;96250.65;110464;1239;71316;-62
2024/02/09 08:47:07;;;;;;;;;;;;;;;9.28;100.00;96249.11;110376;1242;69223;-62
2024/02/09 08:49:36;;;;;;;;;;;;;;;9.54;100.00;96246.38;110375;1240;68616;-62
2024/02/09 08:52:05;;;;;;;;;;;;;;;9.79;100.00;96237.20;110377;1242;59693;-62
2024/02/09 08:54:35;;;;;;;;;;;;;;;10.04;100.00;96233.61;110453;1249;59624;-61
2024/02/09 08:57:04;;;;;;;;;;;;;;;10.27;100.00;96237.84;110464;1240;71930;-62
2024/02/09 08:59:35;;;;;;;;;;;;;;;10.47;100.00;96232.19;110415;1242;69931;-62
2024/02/09 09:02:03;;;;;;;;;;;;;;;10.74;100.00;96238.63;110409;1242;69789;-62
2024/02/09 09:04:33;;;;;;;;;;;;;;;11.24;99.81;96240.09;110419;1240;59601;-62
2024/02/09 09:07:03;;;;;;;;;;;;;;;11.75;99.95;96236.42;110449;1242;59678;-62
2024/02/09 09:09:33;;;;;;;;;;;;;;;12.07;98.65;96235.98;110452;1240;71240;-62
2024/02/09 09:12:05;;;;;;;;;;;;;;;12.29;95.14;96231.52;110393;1240;70470;-61
2024/02/09 09:14:38;;;;;;;;;;;;;;;12.54;98.66;96229.48;110384;1242;69252;-61
2024/02/09 09:17:07;;;;;;;;;;;;;;;12.74;89.62;96235.34;110429;1241;59712;-61
2024/02/09 09:19:51;;;;;;;;;;;;;;;12.88;82.96;96237.80;110545;1241;59683;-61
2024/02/09 09:22:20;;;;;;;;;;;;;;;12.91;81.95;96238.31;110510;1240;71816;-63
2024/02/09 09:24:49;;;;;;;;;;;;;;;12.71;76.80;96235.79;110504;1245;70080;-60
2024/02/09 09:27:18;;;;;;;;;;;;;;;12.59;79.87;96234.23;110441;1242;68840;-61
2024/02/09 09:29:46;;;;;;;;;;;;;;;12.71;81.17;96231.92;110525;1245;59689;-61
2024/02/09 09:32:16;;;;;;;;;;;;;;;12.93;78.00;96225.52;110494;1241;59691;-61
2024/02/09 09:34:46;;;;;;;;;;;;;;;13.23;74.94;96216.93;110445;1240;72061;-61
2024/02/09 09:37:15;;;;;;;;;;;;;;;13.67;72.71;96210.09;110441;1242;68263;-62
2024/02/09 09:39:43;;;;;;;;;;;;;;;14.46;71.10;96207.21;110420;1241;69830;-61
2024/02/09 09:42:12;;;;;;;;;;;;;;;15.18;66.89;96200.14;110409;1244;59753;-62
2024/02/09 09:44:44;;;;;;;;;;;;;;;15.86;64.63;96194.85;110494;1241;59662;-62
2024/02/09 09:47:13;;;;;;;;;;;;;;;16.47;61.99;96191.57;110444;1241;71760;-61
2024/02/09 09:49:44;;;;;;;;;;;;;;;17.14;57.23;96188.70;110393;1241;68787;-61
2024/02/09 09:52:28;;;;;;;;;;;;;;;17.49;55.58;96185.48;110384;1242;69760;-61
2024/02/09 09:54:58;;;;;;;;;;;;;;;17.92;53.89;96183.17;110415;1239;59738;-61
2024/02/09 09:57:30;;;;;;;;;;;;;;;18.37;53.23;96188.98;110412;1242;59675;-61
2024/02/09 09:59:59;;;;;;;;;;;;;;;18.77;51.30;96185.84;110521;1242;70402;-61
2024/02/09 10:02:32;;;;;;;;;;;;;;;19.38;50.05;96176.73;110428;1238;67882;-63
2024/02/09 10:05:01;;;;;;;;;;;;;;;19.94;49.14;96175.38;110425;1243;69696;-61
2024/02/09 10:07:30;;;;;;;;;;;;;;;20.21;46.43;96174.30;110404;1243;59666;-60
2024/02/09 10:10:00;;;;;;;;;;;;;;;19.80;46.17;96163.64;110508;1242;59688;-62
2024/02/09 10:12:32;;;;;;;;;;;;;;;19.65;45.58;96161.48;110578;1243;71450;-62
2024/02/09 10:15:01;;;;;;;;;;;;;;;19.17;45.87;96170.83;110538;1244;69655;-62
2024/02/09 10:17:31;;;;;;;;;;;;;;;18.96;46.27;96162.11;110545;1242;69124;-63
2024/02/09 10:20:00;;;;;;;;;;;;;;;18.70;46.93;96154.30;110481;1240;59675;-63
2024/02/09 10:22:29;;;;;;;;;;;;;;;18.62;46.43;96150.20;110487;1242;59697;-63
2024/02/09 10:24:58;;;;;;;;;;;;;;;18.61;46.75;96141.61;110428;1242;72006;-62
2024/02/09 10:27:27;;;;;;;;;;;;;;;18.67;46.53;96141.98;110432;1249;69839;-61
2024/02/09 10:29:57;;;;;;;;;;;;;;;18.90;46.72;96138.77;110364;1241;68589;-62
2024/02/09 10:32:26;;;;;;;;;;;;;;;19.17;45.03;96144.10;110345;1243;59705;-63
2024/02/09 10:34:55;;;;;;;;;;;;;;;18.87;45.45;96152.20;110390;1241;59703;-62
2024/02/09 10:37:25;;;;;;;;;;;;;;;18.42;45.57;96148.25;110438;1241;70282;-62
2024/02/09 10:40:00;;;;;;;;;;;;;;;17.69;47.34;96146.70;110376;1238;69850;-62
2024/02/09 10:42:30;;;;;;;;;;;;;;;17.08;48.57;96141.27;110343;1242;69715;-61
2024/02/09 10:44:59;;;;;;;;;;;;;;;16.33;50.21;96141.86;110409;1240;59705;-61
2024/02/09 10:47:40;;;;;;;;;;;;;;;15.62;52.43;96138.94;110408;1241;59673;-60
2024/02/09 10:50:10;;;;;;;;;;;;;;;15.39;53.69;96137.87;110431;1242;71910;-60
2024/02/09 10:52:43;;;;;;;;;;;;;;;15.27;54.13;96139.20;110382;1238;68114;-61
2024/02/09 10:55:14;;;;;;;;;;;;;;;14.98;55.62;96139.61;110353;1242;68519;-62
2024/02/09 10:57:45;;;;;;;;;;;;;;;14.70;56.69;96136.92;110383;1241;59737;-61
2024/02/09 11:00:16;;;;;;;;;;;;;;;14.54;57.42;96131.77;110409;1249;60034;-61
2024/02/09 11:02:45;;;;;;;;;;;;;;;14.50;58.05;96125.04;110398;1241;71777;-61
2024/02/09 11:05:17;;;;;;;;;;;;;;;14.53;58.20;96123.55;110388;1242;69207;-61
2024/02/09 11:07:49;;;;;;;;;;;;;;;14.56;58.33;96128.40;110414;1242;68508;-61
2024/02/09 11:10:18;;;;;;;;;;;;;;;14.59;58.14;96135.08;110463;1242;59728;-61
2024/02/09 11:13:00;;;;;;;;;;;;;;;14.57;58.06;96136.73;110390;1242;59746;-62
2024/02/09 11:15:32;;;;;;;;;;;;;;;14.43;58.43;96138.20;110410;1242;71171;-61
2024/02/09 11:18:01;;;;;;;;;;;;;;;14.09;59.24;96141.56;110448;1241;69377;-63
2024/02/09 11:20:33;;;;;;;;;;;;;;;13.74;60.23;96141.96;110379;1242;69954;-61
2024/02/09 11:23:04;;;;;;;;;;;;;;;13.67;60.02;96136.17;110457;1242;59713;-62
2024/02/09 11:25:36;;;;;;;;;;;;;;;13.70;60.21;96137.95;110445;1243;59633;-62
2024/02/09 11:28:06;;;;;;;;;;;;;;;13.59;60.18;96137.79;110421;1238;71394;-62
2024/02/09 11:30:35;;;;;;;;;;;;;;;13.56;61.01;96139.69;110422;1249;69782;-60
2024/02/09 11:33:06;;;;;;;;;;;;;;;13.55;61.28;96138.70;110506;1241;68140;-61
2024/02/09 11:35:35;;;;;;;;;;;;;;;13.51;61.22;96137.91;110522;1240;59786;-62
2024/02/09 11:38:05;;;;;;;;;;;;;;;13.37;61.38;96130.95;110456;1239;59675;-63
2024/02/09 11:40:34;;;;;;;;;;;;;;;13.39;61.55;96134.04;110405;1242;71889;-63
2024/02/09 11:43:03;;;;;;;;;;;;;;;13.36;62.16;96130.33;110388;1242;69195;-61
2024/02/09 11:45:33;;;;;;;;;;;;;;;13.57;61.47;96131.36;110351;1242;69227;-61
2024/02/09 11:48:03;;;;;;;;;;;;;;;13.50;61.16;96121.34;110364;1242;59828;-62
2024/02/09 11:50:31;;;;;;;;;;;;;;;13.44;60.84;96121.98;110410;1242;59702;-61
2024/02/09 11:53:04;;;;;;;;;;;;;;;13.38;61.10;96120.15;110496;1240;71250;-61
2024/02/09 11:55:42;;;;;;;;;;;;;;;13.37;61.28;96119.14;110404;1242;69836;-61
2024/02/09 11:58:13;;;;;;;;;;;;;;;13.41;61.31;96118.10;110423;1242;69238;-62
2024/02/09 12:00:42;;;;;;;;;;;;;;;13.39;61.69;96113.60;110449;1242;59673;-61
2024/02/09 12:03:12;;;;;;;;;;;;;;;13.48;62.18;96109.81;110432;1241;59668;-61
2024/02/09 12:05:46;;;;;;;;;;;;;;;13.54;62.14;96105.95;110434;1245;71931;-62
2024/02/09 12:08:19;;;;;;;;;;;;;;;13.65;61.16;96110.36;110447;1238;69208;-61
2024/02/09 12:10:50;;;;;;;;;;;;;;;13.65;61.25;96108.04;110440;1242;69254;-62
2024/02/09 12:13:20;;;;;;;;;;;;;;;13.56;61.30;96107.27;110382;1242;59711;-62
2024/02/09 12:15:50;;;;;;;;;;;;;;;13.57;61.52;96110.48;110412;1241;60101;-62
2024/02/09 12:18:20;;;;;;;;;;;;;;;13.39;61.29;96111.47;110435;1245;71339;-61
2024/02/09 12:20:49;;;;;;;;;;;;;;;13.47;61.48;96113.94;110502;1242;69788;-61
2024/02/09 12:23:18;;;;;;;;;;;;;;;13.42;61.27;96111.89;110410;1249;69769;-61
2024/02/09 12:25:48;;;;;;;;;;;;;;;13.33;61.37;96116.36;110464;1242;59766;-62
2024/02/09 12:28:23;;;;;;;;;;;;;;;13.42;61.20;96119.97;110496;1242;59778;-61
2024/02/09 12:30:52;;;;;;;;;;;;;;;13.35;61.32;96118.05;110489;1243;71440;-62
2024/02/09 12:33:22;;;;;;;;;;;;;;;13.28;61.26;96113.03;110418;1239;69014;-62
2024/02/09 12:35:55;;;;;;;;;;;;;;;13.10;62.17;96111.85;110437;1243;70360;-62
2024/02/09 12:38:23;;;;;;;;;;;;;;;13.16;62.06;96106.16;110602;1242;59744;-62
2024/02/09 12:40:56;;;;;;;;;;;;;;;13.17;62.61;96101.52;110480;1241;59637;-63
2024/02/09 12:43:26;;;;;;;;;;;;;;;13.20;62.62;96094.49;110457;1247;71173;-63
2024/02/09 12:45:55;;;;;;;;;;;;;;;13.19;62.57;96088.52;110420;1244;69194;-62
2024/02/09 12:48:24;;;;;;;;;;;;;;;13.20;62.74;96091.64;110395;1241;69869;-62
2024/02/09 12:50:55;;;;;;;;;;;;;;;13.20;63.04;96094.04;110505;1242;59690;-62
2024/02/09 12:53:26;;;;;;;;;;;;;;;13.16;63.17;96089.02;110345;1241;59678;-62
2024/02/09 12:55:55;;;;;;;;;;;;;;;13.30;62.42;96096.34;110384;1241;71872;-62
2024/02/09 12:58:24;;;;;;;;;;;;;;;13.18;62.64;96090.41;110359;1241;69743;-62
2024/02/09 13:00:53;;;;;;;;;;;;;;;13.23;62.69;96094.98;110394;1240;68145;-61
2024/02/09 13:03:28;;;;;;;;;;;;;;;13.23;62.47;96088.84;110389;1238;59654;-61
2024/02/09 13:05:57;;;;;;;;;;;;;;;13.31;62.03;96095.21;110424;1241;59630;-61
2024/02/09 13:08:29;;;;;;;;;;;;;;;13.34;61.74;96086.89;110396;1238;70631;-61
2024/02/09 13:10:58;;;;;;;;;;;;;;;13.36;61.22;96086.45;110471;1241;69100;-61
2024/02/09 13:13:29;;;;;;;;;;;;;;;13.60;61.07;96089.00;110383;1241;69866;-61
2024/02/09 13:15:58;;;;;;;;;;;;;;;13.90;59.85;96087.86;110366;1241;59672;-61
2024/02/09 13:18:27;;;;;;;;;;;;;;;14.18;58.74;96087.95;110383;1241;59654;-61
2024/02/09 13:20:58;;;;;;;;;;;;;;;14.22;58.22;96078.25;110396;1242;71312;-61
2024/02/09 13:23:28;;;;;;;;;;;;;;;14.05;59.16;96079.09;110352;1242;69811;-63
2024/02/09 13:25:58;;;;;;;;;;;;;;;14.00;59.79;96078.61;110380;1244;69215;-61
2024/02/09 13:28:29;;;;;;;;;;;;;;;13.98;59.63;96077.42;110345;1241;59724;-63
2024/02/09 13:31:00;;;;;;;;;;;;;;;13.90;59.62;96078.43;110410;1243;60106;-61
2024/02/09 13:33:29;;;;;;;;;;;;;;;13.78;60.04;96086.85;110440;1242;71152;-61
2024/02/09 13:35:58;;;;;;;;;;;;;;;13.65;60.23;96092.64;110400;1241;69779;-62
2024/02/09 13:38:27;;;;;;;;;;;;;;;13.55;60.69;96088.65;110397;1242;69191;-62
2024/02/09 13:40:57;;;;;;;;;;;;;;;13.41;61.07;96086.86;110399;1241;59748;-61
2024/02/09 13:43:27;;;;;;;;;;;;;;;13.35;61.12;96086.40;110383;1240;59678;-61
2024/02/09 13:45:56;;;;;;;;;;;;;;;13.27;61.52;96088.27;110406;1240;71757;-62
2024/02/09 13:48:25;;;;;;;;;;;;;;;13.24;61.63;96084.65;110430;1240;69218;-61
2024/02/09 13:50:54;;;;;;;;;;;;;;;13.19;62.11;96082.41;110381;1242;69237;-61
2024/02/09 13:53:22;;;;;;;;;;;;;;;13.14;62.58;96075.77;110386;1248;59722;-61
2024/02/09 13:55:52;;;;;;;;;;;;;;;13.12;62.51;96073.11;110477;1243;59642;-61
2024/02/09 13:58:21;;;;;;;;;;;;;;;13.13;61.96;96071.81;110497;1238;72420;-61
2024/02/09 14:00:50;;;;;;;;;;;;;;;13.06;62.22;96066.60;110427;1243;68888;-61
2024/02/09 14:03:20;;;;;;;;;;;;;;;13.03;62.47;96068.33;110522;1238;68316;-61
2024/02/09 14:05:49;;;;;;;;;;;;;;;12.99;62.69;96066.65;110449;1238;59763;-62
2024/02/09 14:08:20;;;;;;;;;;;;;;;12.95;62.77;96063.74;110400;1241;59704;-62
2024/02/09 14:10:49;;;;;;;;;;;;;;;12.93;62.90;96062.58;110446;1242;70619;-62
2024/02/09 14:13:18;;;;;;;;;;;;;;;12.92;62.93;96065.25;110416;1240;69810;-62
2024/02/09 14:15:49;;;;;;;;;;;;;;;12.87;63.49;96070.70;110469;1241;69869;-63
2024/02/09 14:18:18;;;;;;;;;;;;;;;12.89;63.60;96068.25;110463;1241;59677;-61
2024/02/09 14:20:49;;;;;;;;;;;;;;;12.90;63.67;96058.36;110553;1240;59734;-62
2024/02/09 14:23:18;;;;;;;;;;;;;;;12.93;63.70;96049.41;110398;1241;71805;-61
2024/02/09 14:25:48;;;;;;;;;;;;;;;12.96;63.43;96043.48;110413;1238;69048;-61
2024/02/09 14:28:18;;;;;;;;;;;;;;;13.00;63.46;96036.64;110397;1242;70218;-61
2024/02/09 14:30:47;;;;;;;;;;;;;;;13.04;63.31;96034.30;110360;1241;59735;-61
2024/02/09 14:33:17;;;;;;;;;;;;;;;13.06;63.24;96032.50;110397;1239;59672;-63
2024/02/09 14:35:50;;;;;;;;;;;;;;;13.05;63.07;96032.48;110347;1238;71183;-63
2024/02/09 14:38:18;;;;;;;;;;;;;;;13.03;63.12;96034.30;110419;1241;70012;-63
2024/02/09 14:40:47;;;;;;;;;;;;;;;12.97;63.35;96037.70;110477;1242;69101;-61